sensor_id;sensor_type;location;lat;lon;timestamp;pressure;altitude;pressure_sealevel;temperature;humidity
67818;BME280;54614;47.576;7.524;2024-02-26T00:02:05;96546.38;;;22.97;36.99
67818;BME280;54614;47.576;7.524;2024-02-26T00:04:32;96538.25;;;22.92;37.03
67818;BME280;54614;47.576;7.524;2024-02-26T00:06:58;96520.56;;;22.91;36.74
67818;BME280;54614;47.576;7.524;2024-02-26T00:09:23;96515.88;;;22.81;37.13
67818;BME280;54614;47.576;7.524;2024-02-26T00:11:49;96499.94;;;22.92;37.06
67818;BME280;54614;47.576;7.524;2024-02-26T00:14:15;96510.16;;;22.95;36.84
67818;BME280;54614;47.576;7.524;2024-02-26T00:16:41;96509.91;;;22.96;36.86
67818;BME280;54614;47.576;7.524;2024-02-26T00:19:07;96513.63;;;22.95;36.92
67818;BME280;54614;47.576;7.524;2024-02-26T00:21:33;96519.00;;;22.95;36.82
67818;BME280;54614;47.576;7.524;2024-02-26T00:23:59;96514.63;;;22.89;36.88
67818;BME280;54614;47.576;7.524;2024-02-26T00:26:24;96507.66;;;22.88;37.26
67818;BME280;54614;47.576;7.524;2024-02-26T00:28:50;96501.28;;;22.94;36.90
67818;BME280;54614;47.576;7.524;2024-02-26T00:31:16;96511.72;;;22.91;36.97
67818;BME280;54614;47.576;7.524;2024-02-26T00:33:42;96522.13;;;22.87;36.91
67818;BME280;54614;47.576;7.524;2024-02-26T00:36:08;96521.31;;;22.87;36.84
67818;BME280;54614;47.576;7.524;2024-02-26T00:38:33;96511.47;;;22.92;36.56
67818;BME280;54614;47.576;7.524;2024-02-26T00:40:59;96513.84;;;22.89;37.02
67818;BME280;54614;47.576;7.524;2024-02-26T00:43:25;96521.06;;;22.88;37.13
67818;BME280;54614;47.576;7.524;2024-02-26T00:45:51;96530.97;;;22.88;36.88
67818;BME280;54614;47.576;7.524;2024-02-26T00:48:18;96531.72;;;22.83;37.26
67818;BME280;54614;47.576;7.524;2024-02-26T00:50:43;96523.50;;;22.90;37.17
67818;BME280;54614;47.576;7.524;2024-02-26T00:53:09;96521.72;;;22.78;37.38
67818;BME280;54614;47.576;7.524;2024-02-26T00:55:35;96522.31;;;22.80;37.21
67818;BME280;54614;47.576;7.524;2024-02-26T00:58:00;96514.28;;;22.80;37.34
67818;BME280;54614;47.576;7.524;2024-02-26T01:00:26;96524.75;;;22.82;37.13
67818;BME280;54614;47.576;7.524;2024-02-26T01:02:52;96525.72;;;22.76;36.90
67818;BME280;54614;47.576;7.524;2024-02-26T01:05:18;96518.31;;;22.83;36.88
67818;BME280;54614;47.576;7.524;2024-02-26T01:07:44;96524.50;;;22.83;36.91
67818;BME280;54614;47.576;7.524;2024-02-26T01:10:09;96529.03;;;22.83;37.30
67818;BME280;54614;47.576;7.524;2024-02-26T01:12:35;96534.16;;;22.85;37.15
67818;BME280;54614;47.576;7.524;2024-02-26T01:15:02;96534.16;;;22.85;37.16
67818;BME280;54614;47.576;7.524;2024-02-26T01:17:29;96536.53;;;22.81;37.01
67818;BME280;54614;47.576;7.524;2024-02-26T01:19:54;96534.47;;;22.88;37.19
67818;BME280;54614;47.576;7.524;2024-02-26T01:22:20;96546.75;;;22.84;37.22
67818;BME280;54614;47.576;7.524;2024-02-26T01:24:46;96537.81;;;22.78;36.95
67818;BME280;54614;47.576;7.524;2024-02-26T01:27:12;96537.25;;;22.76;37.05
67818;BME280;54614;47.576;7.524;2024-02-26T01:29:40;96536.44;;;22.76;36.68
67818;BME280;54614;47.576;7.524;2024-02-26T01:32:06;96545.84;;;22.78;37.02
67818;BME280;54614;47.576;7.524;2024-02-26T01:34:32;96553.41;;;22.81;36.87
67818;BME280;54614;47.576;7.524;2024-02-26T01:36:58;96546.44;;;22.80;37.07
67818;BME280;54614;47.576;7.524;2024-02-26T01:39:24;96546.19;;;22.82;37.09
67818;BME280;54614;47.576;7.524;2024-02-26T01:41:50;96550.56;;;22.71;37.34
67818;BME280;54614;47.576;7.524;2024-02-26T01:44:15;96525.72;;;22.76;37.06
67818;BME280;54614;47.576;7.524;2024-02-26T01:46:41;96512.97;;;22.83;37.11
67818;BME280;54614;47.576;7.524;2024-02-26T01:49:11;96496.22;;;22.76;37.08
67818;BME280;54614;47.576;7.524;2024-02-26T01:51:41;96488.69;;;22.73;37.38
67818;BME280;54614;47.576;7.524;2024-02-26T01:54:09;96492.84;;;22.80;37.06
67818;BME280;54614;47.576;7.524;2024-02-26T01:56:37;96491.38;;;22.73;37.10
67818;BME280;54614;47.576;7.524;2024-02-26T01:59:07;96491.63;;;22.71;36.93
67818;BME280;54614;47.576;7.524;2024-02-26T02:01:34;96490.56;;;22.72;37.03
67818;BME280;54614;47.576;7.524;2024-02-26T02:04:01;96479.34;;;22.75;37.28
67818;BME280;54614;47.576;7.524;2024-02-26T02:06:27;96480.72;;;22.78;37.36
67818;BME280;54614;47.576;7.524;2024-02-26T02:08:56;96480.66;;;22.73;37.08
67818;BME280;54614;47.576;7.524;2024-02-26T02:11:22;96489.19;;;22.70;37.12
67818;BME280;54614;47.576;7.524;2024-02-26T02:13:48;96493.56;;;22.76;37.00
67818;BME280;54614;47.576;7.524;2024-02-26T02:16:14;96496.78;;;22.78;37.14
67818;BME280;54614;47.576;7.524;2024-02-26T02:18:40;96503.56;;;22.80;37.21
67818;BME280;54614;47.576;7.524;2024-02-26T02:21:05;96503.16;;;22.72;37.27
67818;BME280;54614;47.576;7.524;2024-02-26T02:23:31;96510.69;;;22.75;36.96
67818;BME280;54614;47.576;7.524;2024-02-26T02:25:58;96516.59;;;22.77;37.14
67818;BME280;54614;47.576;7.524;2024-02-26T02:28:27;96523.47;;;22.68;37.40
67818;BME280;54614;47.576;7.524;2024-02-26T02:30:54;96514.38;;;22.69;37.12
67818;BME280;54614;47.576;7.524;2024-02-26T02:33:21;96520.84;;;22.73;37.33
67818;BME280;54614;47.576;7.524;2024-02-26T02:35:48;96518.41;;;22.71;37.02
67818;BME280;54614;47.576;7.524;2024-02-26T02:38:16;96528.31;;;22.71;37.17
67818;BME280;54614;47.576;7.524;2024-02-26T02:40:42;96520.03;;;22.72;37.15
67818;BME280;54614;47.576;7.524;2024-02-26T02:43:08;96520.28;;;22.71;37.25
67818;BME280;54614;47.576;7.524;2024-02-26T02:45:33;96520.59;;;22.74;37.34
67818;BME280;54614;47.576;7.524;2024-02-26T02:47:59;96530.13;;;22.65;36.95
67818;BME280;54614;47.576;7.524;2024-02-26T02:50:25;96536.31;;;22.66;37.17
67818;BME280;54614;47.576;7.524;2024-02-26T02:52:51;96537.69;;;22.68;36.77
67818;BME280;54614;47.576;7.524;2024-02-26T02:55:18;96537.69;;;22.68;37.16
67818;BME280;54614;47.576;7.524;2024-02-26T02:57:43;96532.06;;;22.70;37.45
67818;BME280;54614;47.576;7.524;2024-02-26T03:00:11;96539.84;;;22.71;37.10
67818;BME280;54614;47.576;7.524;2024-02-26T03:02:37;96544.72;;;22.74;37.16
67818;BME280;54614;47.576;7.524;2024-02-26T03:05:06;96541.97;;;22.69;37.32
67818;BME280;54614;47.576;7.524;2024-02-26T03:07:32;96546.78;;;22.67;37.52
67818;BME280;54614;47.576;7.524;2024-02-26T03:09:58;96550.50;;;22.66;37.40
67818;BME280;54614;47.576;7.524;2024-02-26T03:12:24;96548.63;;;22.67;37.08
67818;BME280;54614;47.576;7.524;2024-02-26T03:14:50;96555.88;;;22.66;36.98
67818;BME280;54614;47.576;7.524;2024-02-26T03:17:16;96553.69;;;22.63;36.98
67818;BME280;54614;47.576;7.524;2024-02-26T03:19:44;96558.97;;;22.58;36.98
67818;BME280;54614;47.576;7.524;2024-02-26T03:22:13;96555.38;;;22.69;37.29
67818;BME280;54614;47.576;7.524;2024-02-26T03:24:39;96556.69;;;22.67;37.27
67818;BME280;54614;47.576;7.524;2024-02-26T03:27:05;96548.38;;;22.68;37.42
67818;BME280;54614;47.576;7.524;2024-02-26T03:29:35;96551.00;;;22.63;37.30
67818;BME280;54614;47.576;7.524;2024-02-26T03:32:01;96551.56;;;22.65;37.21
67818;BME280;54614;47.576;7.524;2024-02-26T03:34:28;96547.84;;;22.66;37.13
67818;BME280;54614;47.576;7.524;2024-02-26T03:36:54;96547.75;;;22.61;37.25
67818;BME280;54614;47.576;7.524;2024-02-26T03:39:20;96554.50;;;22.64;37.16
67818;BME280;54614;47.576;7.524;2024-02-26T03:41:45;96550.69;;;22.60;37.25
67818;BME280;54614;47.576;7.524;2024-02-26T03:44:11;96551.75;;;22.59;37.07
67818;BME280;54614;47.576;7.524;2024-02-26T03:46:37;96554.66;;;22.57;37.29
67818;BME280;54614;47.576;7.524;2024-02-26T03:49:03;96555.22;;;22.59;37.59
67818;BME280;54614;47.576;7.524;2024-02-26T03:51:29;96562.47;;;22.59;37.23
67818;BME280;54614;47.576;7.524;2024-02-26T03:53:58;96556.38;;;22.63;37.17
67818;BME280;54614;47.576;7.524;2024-02-26T03:56:24;96557.19;;;22.64;37.14
67818;BME280;54614;47.576;7.524;2024-02-26T03:58:49;96559.59;;;22.65;37.43
67818;BME280;54614;47.576;7.524;2024-02-26T04:01:15;96553.94;;;22.62;37.54
67818;BME280;54614;47.576;7.524;2024-02-26T04:03:41;96557.91;;;22.59;37.28
67818;BME280;54614;47.576;7.524;2024-02-26T04:06:11;96549.63;;;22.61;37.48
67818;BME280;54614;47.576;7.524;2024-02-26T04:08:40;96551.56;;;22.65;37.38
67818;BME280;54614;47.576;7.524;2024-02-26T04:11:06;96551.44;;;22.55;37.01
67818;BME280;54614;47.576;7.524;2024-02-26T04:13:36;96544.53;;;22.59;37.05
67818;BME280;54614;47.576;7.524;2024-02-26T04:16:06;96559.47;;;22.55;37.43
67818;BME280;54614;47.576;7.524;2024-02-26T04:18:33;96549.88;;;22.59;37.15
67818;BME280;54614;47.576;7.524;2024-02-26T04:20:58;96555.56;;;22.63;37.49
67818;BME280;54614;47.576;7.524;2024-02-26T04:23:25;96575.38;;;22.62;37.14
67818;BME280;54614;47.576;7.524;2024-02-26T04:25:50;96568.56;;;22.54;37.37
67818;BME280;54614;47.576;7.524;2024-02-26T04:28:19;96561.41;;;22.60;37.32
67818;BME280;54614;47.576;7.524;2024-02-26T04:30:47;96550.38;;;22.56;37.54
67818;BME280;54614;47.576;7.524;2024-02-26T04:33:14;96536.41;;;22.54;37.59
67818;BME280;54614;47.576;7.524;2024-02-26T04:35:39;96546.06;;;22.55;37.26
67818;BME280;54614;47.576;7.524;2024-02-26T04:38:05;96536.16;;;22.56;37.11
67818;BME280;54614;47.576;7.524;2024-02-26T04:40:31;96527.50;;;22.48;37.35
67818;BME280;54614;47.576;7.524;2024-02-26T04:42:56;96526.50;;;22.55;37.34
67818;BME280;54614;47.576;7.524;2024-02-26T04:45:23;96540.66;;;22.50;37.29
67818;BME280;54614;47.576;7.524;2024-02-26T04:47:48;96535.59;;;22.54;37.34
67818;BME280;54614;47.576;7.524;2024-02-26T04:50:14;96531.88;;;22.55;37.06
67818;BME280;54614;47.576;7.524;2024-02-26T04:52:41;96529.69;;;22.51;37.51
67818;BME280;54614;47.576;7.524;2024-02-26T04:55:07;96525.13;;;22.52;37.48
67818;BME280;54614;47.576;7.524;2024-02-26T04:57:33;96533.50;;;22.56;37.29
67818;BME280;54614;47.576;7.524;2024-02-26T04:59:59;96540.72;;;22.55;37.23
67818;BME280;54614;47.576;7.524;2024-02-26T05:02:25;96537.97;;;22.50;37.48
67818;BME280;54614;47.576;7.524;2024-02-26T05:04:50;96539.41;;;22.58;37.44
67818;BME280;54614;47.576;7.524;2024-02-26T05:07:16;96538.53;;;22.52;37.14
67818;BME280;54614;47.576;7.524;2024-02-26T05:09:46;96535.34;;;22.55;37.36
67818;BME280;54614;47.576;7.524;2024-02-26T05:12:12;96543.41;;;22.55;37.22
67818;BME280;54614;47.576;7.524;2024-02-26T05:14:37;96549.06;;;22.59;37.39
67818;BME280;54614;47.576;7.524;2024-02-26T05:17:03;96551.69;;;22.54;37.24
67818;BME280;54614;47.576;7.524;2024-02-26T05:19:29;96553.78;;;22.51;37.49
67818;BME280;54614;47.576;7.524;2024-02-26T05:21:55;96548.19;;;22.53;37.43
67818;BME280;54614;47.576;7.524;2024-02-26T05:24:20;96547.63;;;22.51;37.58
67818;BME280;54614;47.576;7.524;2024-02-26T05:26:48;96554.91;;;22.56;37.19
67818;BME280;54614;47.576;7.524;2024-02-26T05:29:14;96559.88;;;22.47;37.64
67818;BME280;54614;47.576;7.524;2024-02-26T05:31:42;96551.69;;;22.54;37.37
67818;BME280;54614;47.576;7.524;2024-02-26T05:34:08;96555.41;;;22.52;37.31
67818;BME280;54614;47.576;7.524;2024-02-26T05:36:34;96550.88;;;22.53;37.14
67818;BME280;54614;47.576;7.524;2024-02-26T05:39:00;96543.31;;;22.50;37.24
67818;BME280;54614;47.576;7.524;2024-02-26T05:41:26;96540.81;;;22.43;37.71
67818;BME280;54614;47.576;7.524;2024-02-26T05:43:53;96526.69;;;22.48;37.54
67818;BME280;54614;47.576;7.524;2024-02-26T05:46:20;96537.72;;;22.51;37.08
67818;BME280;54614;47.576;7.524;2024-02-26T05:48:49;96542.09;;;22.58;37.22
67818;BME280;54614;47.576;7.524;2024-02-26T05:51:15;96536.91;;;22.51;37.41
67818;BME280;54614;47.576;7.524;2024-02-26T05:53:41;96535.53;;;22.48;37.36
67818;BME280;54614;47.576;7.524;2024-02-26T05:56:07;96546.25;;;22.48;37.19
67818;BME280;54614;47.576;7.524;2024-02-26T05:58:33;96552.66;;;22.47;37.16
67818;BME280;54614;47.576;7.524;2024-02-26T06:00:59;96554.22;;;22.43;37.16
67818;BME280;54614;47.576;7.524;2024-02-26T06:03:26;96548.28;;;22.41;37.52
67818;BME280;54614;47.576;7.524;2024-02-26T06:05:52;96551.03;;;22.46;37.51
67818;BME280;54614;47.576;7.524;2024-02-26T06:08:18;96543.25;;;22.45;37.17
67818;BME280;54614;47.576;7.524;2024-02-26T06:10:44;96553.78;;;22.51;37.19
67818;BME280;54614;47.576;7.524;2024-02-26T06:13:10;96544.69;;;22.52;37.24
67818;BME280;54614;47.576;7.524;2024-02-26T06:15:36;96544.38;;;22.49;37.30
67818;BME280;54614;47.576;7.524;2024-02-26T06:18:01;96547.88;;;22.49;37.49
67818;BME280;54614;47.576;7.524;2024-02-26T06:20:27;96543.75;;;22.42;37.40
67818;BME280;54614;47.576;7.524;2024-02-26T06:22:53;96548.03;;;22.43;37.41
67818;BME280;54614;47.576;7.524;2024-02-26T06:25:19;96543.81;;;22.47;37.07
67818;BME280;54614;47.576;7.524;2024-02-26T06:27:45;96551.03;;;22.46;37.05
67818;BME280;54614;47.576;7.524;2024-02-26T06:30:11;96546.19;;;22.43;37.39
67818;BME280;54614;47.576;7.524;2024-02-26T06:32:37;96545.44;;;22.48;37.28
67818;BME280;54614;47.576;7.524;2024-02-26T06:35:04;96554.03;;;22.50;37.26
67818;BME280;54614;47.576;7.524;2024-02-26T06:37:33;96563.31;;;22.42;37.30
67818;BME280;54614;47.576;7.524;2024-02-26T06:40:00;96571.16;;;22.49;37.38
67818;BME280;54614;47.576;7.524;2024-02-26T06:42:26;96581.06;;;22.48;37.20
67818;BME280;54614;47.576;7.524;2024-02-26T06:44:51;96589.09;;;22.48;37.35
67818;BME280;54614;47.576;7.524;2024-02-26T06:47:17;96587.56;;;22.52;37.38
67818;BME280;54614;47.576;7.524;2024-02-26T06:49:43;96583.81;;;22.54;37.34
67818;BME280;54614;47.576;7.524;2024-02-26T06:52:09;96576.28;;;22.50;37.18
67818;BME280;54614;47.576;7.524;2024-02-26T06:54:35;96567.94;;;22.47;37.07
67818;BME280;54614;47.576;7.524;2024-02-26T06:57:01;96563.06;;;22.44;37.15
67818;BME280;54614;47.576;7.524;2024-02-26T06:59:27;96562.81;;;22.45;37.31
67818;BME280;54614;47.576;7.524;2024-02-26T07:01:53;96559.81;;;22.42;37.51
67818;BME280;54614;47.576;7.524;2024-02-26T07:04:20;96563.06;;;22.44;37.45
67818;BME280;54614;47.576;7.524;2024-02-26T07:06:46;96557.22;;;22.47;37.43
67818;BME280;54614;47.576;7.524;2024-02-26T07:09:13;96563.00;;;22.39;37.31
67818;BME280;54614;47.576;7.524;2024-02-26T07:11:39;96562.50;;;22.42;37.58
67818;BME280;54614;47.576;7.524;2024-02-26T07:14:09;96569.97;;;22.40;37.48
67818;BME280;54614;47.576;7.524;2024-02-26T07:16:36;96573.78;;;22.44;37.48
67818;BME280;54614;47.576;7.524;2024-02-26T07:19:02;96582.56;;;22.39;37.37
67818;BME280;54614;47.576;7.524;2024-02-26T07:21:28;96584.16;;;22.40;37.09
67818;BME280;54614;47.576;7.524;2024-02-26T07:23:54;96596.25;;;22.43;37.15
67818;BME280;54614;47.576;7.524;2024-02-26T07:26:19;96587.91;;;22.39;37.46
67818;BME280;54614;47.576;7.524;2024-02-26T07:28:46;96587.66;;;22.41;37.55
67818;BME280;54614;47.576;7.524;2024-02-26T07:31:12;96598.38;;;22.41;37.49
67818;BME280;54614;47.576;7.524;2024-02-26T07:33:38;96613.38;;;22.42;37.27
67818;BME280;54614;47.576;7.524;2024-02-26T07:36:04;96601.38;;;22.44;37.46
67818;BME280;54614;47.576;7.524;2024-02-26T07:38:30;96597.81;;;22.39;37.39
67818;BME280;54614;47.576;7.524;2024-02-26T07:40:55;96599.44;;;22.40;37.39
67818;BME280;54614;47.576;7.524;2024-02-26T07:43:22;96602.03;;;22.35;37.49
67818;BME280;54614;47.576;7.524;2024-02-26T07:45:48;96602.34;;;22.38;37.41
67818;BME280;54614;47.576;7.524;2024-02-26T07:48:14;96603.97;;;22.39;37.06
67818;BME280;54614;47.576;7.524;2024-02-26T07:50:40;96606.09;;;22.37;37.20
67818;BME280;54614;47.576;7.524;2024-02-26T07:53:08;96607.38;;;22.35;37.30
67818;BME280;54614;47.576;7.524;2024-02-26T07:55:34;96606.09;;;22.37;37.25
67818;BME280;54614;47.576;7.524;2024-02-26T07:57:59;96606.66;;;22.39;37.60
67818;BME280;54614;47.576;7.524;2024-02-26T08:00:25;96591.88;;;22.37;37.33
67818;BME280;54614;47.576;7.524;2024-02-26T08:02:51;96589.44;;;22.35;37.37
67818;BME280;54614;47.576;7.524;2024-02-26T08:05:17;96587.00;;;22.34;37.49
67818;BME280;54614;47.576;7.524;2024-02-26T08:07:43;96599.69;;;22.38;37.58
67818;BME280;54614;47.576;7.524;2024-02-26T08:10:09;96598.06;;;22.37;37.59
67818;BME280;54614;47.576;7.524;2024-02-26T08:12:36;96594.81;;;22.35;37.49
67818;BME280;54614;47.576;7.524;2024-02-26T08:15:03;96606.81;;;22.33;37.46
67818;BME280;54614;47.576;7.524;2024-02-26T08:17:29;96611.44;;;22.37;37.06
67818;BME280;54614;47.576;7.524;2024-02-26T08:19:55;96617.63;;;22.38;37.31
67818;BME280;54614;47.576;7.524;2024-02-26T08:22:21;96617.28;;;22.34;37.36
67818;BME280;54614;47.576;7.524;2024-02-26T08:24:47;96621.03;;;22.33;37.55
67818;BME280;54614;47.576;7.524;2024-02-26T08:27:13;96621.09;;;22.38;37.21
67818;BME280;54614;47.576;7.524;2024-02-26T08:29:39;96618.09;;;22.35;37.37
67818;BME280;54614;47.576;7.524;2024-02-26T08:32:05;96619.16;;;22.34;37.57
67818;BME280;54614;47.576;7.524;2024-02-26T08:34:32;96621.84;;;22.34;37.48
67818;BME280;54614;47.576;7.524;2024-02-26T08:36:58;96617.53;;;22.33;37.34
67818;BME280;54614;47.576;7.524;2024-02-26T08:39:24;96616.00;;;22.37;37.65
67818;BME280;54614;47.576;7.524;2024-02-26T08:41:51;96609.81;;;22.36;37.27
67818;BME280;54614;47.576;7.524;2024-02-26T08:44:17;96612.25;;;22.38;37.36
67818;BME280;54614;47.576;7.524;2024-02-26T08:46:43;96617.78;;;22.31;37.37
67818;BME280;54614;47.576;7.524;2024-02-26T08:49:09;96612.75;;;22.35;37.55
67818;BME280;54614;47.576;7.524;2024-02-26T08:51:35;96616.00;;;22.37;37.29
67818;BME280;54614;47.576;7.524;2024-02-26T08:54:00;96619.47;;;22.37;37.29
67818;BME280;54614;47.576;7.524;2024-02-26T08:56:26;96624.84;;;22.37;37.25
67818;BME280;54614;47.576;7.524;2024-02-26T08:58:52;96631.09;;;22.43;37.49
67818;BME280;54614;47.576;7.524;2024-02-26T09:01:21;96635.31;;;22.39;37.63
67818;BME280;54614;47.576;7.524;2024-02-26T09:03:48;96638.78;;;22.39;37.32
67818;BME280;54614;47.576;7.524;2024-02-26T09:06:15;96640.34;;;22.35;37.43
67818;BME280;54614;47.576;7.524;2024-02-26T09:08:41;96642.28;;;22.23;37.22
67818;BME280;54614;47.576;7.524;2024-02-26T09:11:07;96639.28;;;22.36;37.36
67818;BME280;54614;47.576;7.524;2024-02-26T09:13:32;96644.16;;;22.39;37.19
67818;BME280;54614;47.576;7.524;2024-02-26T09:15:59;96645.44;;;22.37;37.39
67818;BME280;54614;47.576;7.524;2024-02-26T09:18:25;96647.00;;;22.33;37.37
67818;BME280;54614;47.576;7.524;2024-02-26T09:20:50;96656.25;;;22.42;37.40
67818;BME280;54614;47.576;7.524;2024-02-26T09:23:16;96658.50;;;22.33;37.41
67818;BME280;54614;47.576;7.524;2024-02-26T09:25:42;96655.09;;;22.38;37.32
67818;BME280;54614;47.576;7.524;2024-02-26T09:28:08;96658.75;;;22.32;37.40
67818;BME280;54614;47.576;7.524;2024-02-26T09:30:33;96646.25;;;22.37;37.48
67818;BME280;54614;47.576;7.524;2024-02-26T09:32:59;96648.13;;;22.37;37.49
67818;BME280;54614;47.576;7.524;2024-02-26T09:35:25;96641.06;;;22.31;37.50
67818;BME280;54614;47.576;7.524;2024-02-26T09:37:52;96644.63;;;22.36;37.30
67818;BME280;54614;47.576;7.524;2024-02-26T09:40:19;96639.84;;;22.38;37.40
67818;BME280;54614;47.576;7.524;2024-02-26T09:42:45;96637.97;;;22.39;37.08
67818;BME280;54614;47.576;7.524;2024-02-26T09:45:23;96640.66;;;22.39;37.58
67818;BME280;54614;47.576;7.524;2024-02-26T09:47:50;96641.78;;;22.43;37.28
67818;BME280;54614;47.576;7.524;2024-02-26T09:50:21;96636.44;;;22.43;37.35
67818;BME280;54614;47.576;7.524;2024-02-26T09:52:49;96646.81;;;22.39;37.41
67818;BME280;54614;47.576;7.524;2024-02-26T09:55:15;96650.72;;;22.48;37.09
67818;BME280;54614;47.576;7.524;2024-02-26T09:57:46;96652.75;;;22.58;36.89
67818;BME280;54614;47.576;7.524;2024-02-26T10:00:18;96653.72;;;22.52;37.15
67818;BME280;54614;47.576;7.524;2024-02-26T10:02:48;96659.66;;;22.54;36.84
67818;BME280;54614;47.576;7.524;2024-02-26T10:05:18;96668.09;;;22.63;36.63
67818;BME280;54614;47.576;7.524;2024-02-26T10:07:48;96667.59;;;22.66;36.73
67818;BME280;54614;47.576;7.524;2024-02-26T10:10:14;96665.81;;;22.71;36.98
67818;BME280;54614;47.576;7.524;2024-02-26T10:12:40;96667.50;;;22.77;36.86
67818;BME280;54614;47.576;7.524;2024-02-26T10:15:07;96662.31;;;22.88;36.27
67818;BME280;54614;47.576;7.524;2024-02-26T10:17:34;96669.06;;;22.90;36.40
67818;BME280;54614;47.576;7.524;2024-02-26T10:20:16;96671.50;;;22.92;36.39
67818;BME280;54614;47.576;7.524;2024-02-26T10:22:44;96685.94;;;22.91;36.35
67818;BME280;54614;47.576;7.524;2024-02-26T10:25:10;96694.06;;;22.96;36.48
67818;BME280;54614;47.576;7.524;2024-02-26T10:27:36;96691.50;;;22.84;36.77
67818;BME280;54614;47.576;7.524;2024-02-26T10:30:20;96687.75;;;22.85;36.65
67818;BME280;54614;47.576;7.524;2024-02-26T10:32:48;96688.31;;;22.70;36.75
67818;BME280;54614;47.576;7.524;2024-02-26T10:35:16;96690.34;;;22.80;36.90
67818;BME280;54614;47.576;7.524;2024-02-26T10:37:43;96692.94;;;22.75;37.03
67818;BME280;54614;47.576;7.524;2024-02-26T10:40:14;96696.16;;;22.77;36.88
67818;BME280;54614;47.576;7.524;2024-02-26T10:42:41;96698.16;;;22.81;36.46
67818;BME280;54614;47.576;7.524;2024-02-26T10:45:09;96688.56;;;22.86;36.87
67818;BME280;54614;47.576;7.524;2024-02-26T10:47:37;96691.88;;;22.76;36.56
67818;BME280;54614;47.576;7.524;2024-02-26T10:50:05;96694.06;;;22.79;37.14
67818;BME280;54614;47.576;7.524;2024-02-26T10:52:33;96698.72;;;22.83;36.63
67818;BME280;54614;47.576;7.524;2024-02-26T10:55:05;96706.19;;;22.81;36.92
67818;BME280;54614;47.576;7.524;2024-02-26T10:57:35;96703.75;;;22.80;36.87
67818;BME280;54614;47.576;7.524;2024-02-26T11:00:03;96701.28;;;22.78;36.52
67818;BME280;54614;47.576;7.524;2024-02-26T11:02:33;96698.22;;;22.87;36.51
67818;BME280;54614;47.576;7.524;2024-02-26T11:05:07;96699.22;;;22.80;36.63
67818;BME280;54614;47.576;7.524;2024-02-26T11:07:34;96697.16;;;22.71;37.15
67818;BME280;54614;47.576;7.524;2024-02-26T11:10:04;96703.41;;;22.76;36.88
67818;BME280;54614;47.576;7.524;2024-02-26T11:12:32;96702.69;;;22.81;36.68
67818;BME280;54614;47.576;7.524;2024-02-26T11:15:01;96700.72;;;22.76;37.07
67818;BME280;54614;47.576;7.524;2024-02-26T11:17:29;96699.09;;;22.75;37.00
67818;BME280;54614;47.576;7.524;2024-02-26T11:19:58;96692.03;;;22.69;37.06
67818;BME280;54614;47.576;7.524;2024-02-26T11:22:28;96697.66;;;22.68;36.87
67818;BME280;54614;47.576;7.524;2024-02-26T11:24:56;96693.91;;;22.69;36.83
67818;BME280;54614;47.576;7.524;2024-02-26T11:27:42;96697.66;;;22.68;37.03
67818;BME280;54614;47.576;7.524;2024-02-26T11:30:10;96701.94;;;22.69;37.13
67818;BME280;54614;47.576;7.524;2024-02-26T11:32:38;96704.63;;;22.69;36.97
67818;BME280;54614;47.576;7.524;2024-02-26T11:35:05;96703.91;;;22.73;37.12
67818;BME280;54614;47.576;7.524;2024-02-26T11:37:33;96710.63;;;22.76;36.78
67818;BME280;54614;47.576;7.524;2024-02-26T11:40:00;96714.94;;;22.77;37.00
67818;BME280;54614;47.576;7.524;2024-02-26T11:42:27;96721.84;;;22.73;37.02
67818;BME280;54614;47.576;7.524;2024-02-26T11:44:54;96712.19;;;22.72;36.86
67818;BME280;54614;47.576;7.524;2024-02-26T11:47:22;96715.28;;;22.80;37.02
67818;BME280;54614;47.576;7.524;2024-02-26T11:49:49;96720.53;;;22.75;37.11
67818;BME280;54614;47.576;7.524;2024-02-26T11:52:16;96718.66;;;22.76;36.84
67818;BME280;54614;47.576;7.524;2024-02-26T11:54:56;96730.63;;;22.85;36.48
67818;BME280;54614;47.576;7.524;2024-02-26T12:00:14;96725.28;;;22.85;36.67
67818;BME280;54614;47.576;7.524;2024-02-26T12:02:51;96725.03;;;22.87;36.82
67818;BME280;54614;47.576;7.524;2024-02-26T12:05:24;96712.00;;;22.78;37.19
67818;BME280;54614;47.576;7.524;2024-02-26T12:07:55;96714.63;;;22.90;37.01
67818;BME280;54614;47.576;7.524;2024-02-26T12:10:24;96704.47;;;22.92;37.03
67818;BME280;54614;47.576;7.524;2024-02-26T12:13:05;96707.88;;;22.88;37.15
67818;BME280;54614;47.576;7.524;2024-02-26T12:15:36;96716.41;;;22.85;37.02
67818;BME280;54614;47.576;7.524;2024-02-26T12:18:08;96711.19;;;22.78;36.73
67818;BME280;54614;47.576;7.524;2024-02-26T12:20:37;96717.16;;;22.80;36.84
67818;BME280;54614;47.576;7.524;2024-02-26T12:23:03;96711.56;;;22.81;36.85
67818;BME280;54614;47.576;7.524;2024-02-26T12:25:31;96703.50;;;22.81;37.00
67818;BME280;54614;47.576;7.524;2024-02-26T12:27:59;96701.06;;;22.80;37.33
67818;BME280;54614;47.576;7.524;2024-02-26T12:30:26;96706.66;;;22.78;37.39
67818;BME280;54614;47.576;7.524;2024-02-26T12:32:54;96702.84;;;22.74;37.28
67818;BME280;54614;47.576;7.524;2024-02-26T12:35:24;96697.00;;;22.77;37.22
67818;BME280;54614;47.576;7.524;2024-02-26T12:37:50;96691.97;;;22.81;37.04
67818;BME280;54614;47.576;7.524;2024-02-26T12:40:18;96690.00;;;22.76;37.14
67818;BME280;54614;47.576;7.524;2024-02-26T12:42:43;96690.91;;;22.82;37.25
67818;BME280;54614;47.576;7.524;2024-02-26T12:45:11;96688.94;;;22.77;37.02
67818;BME280;54614;47.576;7.524;2024-02-26T12:47:42;96684.41;;;22.78;37.08
67818;BME280;54614;47.576;7.524;2024-02-26T12:50:10;96683.13;;;22.80;36.89
67818;BME280;54614;47.576;7.524;2024-02-26T12:52:44;96692.28;;;22.85;36.93
67818;BME280;54614;47.576;7.524;2024-02-26T12:55:20;96688.13;;;22.77;37.21
67818;BME280;54614;47.576;7.524;2024-02-26T12:57:47;96686.38;;;22.82;37.31
67818;BME280;54614;47.576;7.524;2024-02-26T13:00:19;96690.25;;;22.75;37.46
67818;BME280;54614;47.576;7.524;2024-02-26T13:02:48;96681.72;;;22.78;37.24